sensor_id;sensor_type;location;lat;lon;timestamp;temperature;humidity
33741;DHT22;20065;48.380;10.892;2023-09-12T00:02:27;20.80;99.90
33741;DHT22;20065;48.380;10.892;2023-09-12T00:05:14;20.80;99.90
33741;DHT22;20065;48.380;10.892;2023-09-12T00:08:01;20.70;99.90
33741;DHT22;20065;48.380;10.892;2023-09-12T00:10:47;20.70;99.90
33741;DHT22;20065;48.380;10.892;2023-09-12T00:13:43;20.70;99.90
33741;DHT22;20065;48.380;10.892;2023-09-12T00:16:32;20.70;99.90
33741;DHT22;20065;48.380;10.892;2023-09-12T00:19:18;20.70;99.90
33741;DHT22;20065;48.380;10.892;2023-09-12T00:22:04;20.70;99.90
33741;DHT22;20065;48.380;10.892;2023-09-12T00:24:50;20.70;99.90
33741;DHT22;20065;48.380;10.892;2023-09-12T00:27:36;20.60;99.90
33741;DHT22;20065;48.380;10.892;2023-09-12T00:30:22;20.60;99.90
33741;DHT22;20065;48.380;10.892;2023-09-12T00:33:09;20.50;99.90
33741;DHT22;20065;48.380;10.892;2023-09-12T00:35:55;20.40;99.90
33741;DHT22;20065;48.380;10.892;2023-09-12T00:38:41;20.30;99.90
33741;DHT22;20065;48.380;10.892;2023-09-12T00:41:27;20.30;99.90
33741;DHT22;20065;48.380;10.892;2023-09-12T00:44:13;20.20;99.90
33741;DHT22;20065;48.380;10.892;2023-09-12T00:47:00;20.20;99.90
33741;DHT22;20065;48.380;10.892;2023-09-12T00:49:49;20.20;99.90
33741;DHT22;20065;48.380;10.892;2023-09-12T00:52:36;20.20;99.90
33741;DHT22;20065;48.380;10.892;2023-09-12T00:55:24;20.20;99.90
33741;DHT22;20065;48.380;10.892;2023-09-12T00:58:10;20.20;99.90
33741;DHT22;20065;48.380;10.892;2023-09-12T01:00:57;20.20;99.90
33741;DHT22;20065;48.380;10.892;2023-09-12T01:03:44;20.20;99.90
33741;DHT22;20065;48.380;10.892;2023-09-12T01:06:32;20.10;99.90
33741;DHT22;20065;48.380;10.892;2023-09-12T01:09:18;20.10;99.90
33741;DHT22;20065;48.380;10.892;2023-09-12T01:12:05;20.00;99.90
33741;DHT22;20065;48.380;10.892;2023-09-12T01:14:51;20.00;99.90
33741;DHT22;20065;48.380;10.892;2023-09-12T01:17:37;19.80;99.90
33741;DHT22;20065;48.380;10.892;2023-09-12T01:20:30;19.90;99.90
33741;DHT22;20065;48.380;10.892;2023-09-12T01:29:46;20.20;99.90
33741;DHT22;20065;48.380;10.892;2023-09-12T01:32:35;20.00;99.90
33741;DHT22;20065;48.380;10.892;2023-09-12T01:35:21;20.10;99.90
33741;DHT22;20065;48.380;10.892;2023-09-12T01:38:09;20.10;99.90
33741;DHT22;20065;48.380;10.892;2023-09-12T01:40:55;20.10;99.90
33741;DHT22;20065;48.380;10.892;2023-09-12T01:43:45;20.10;99.90
33741;DHT22;20065;48.380;10.892;2023-09-12T01:46:34;20.10;99.90
33741;DHT22;20065;48.380;10.892;2023-09-12T01:49:24;20.00;99.90
33741;DHT22;20065;48.380;10.892;2023-09-12T01:52:11;19.90;99.90
33741;DHT22;20065;48.380;10.892;2023-09-12T01:54:58;19.80;99.90
33741;DHT22;20065;48.380;10.892;2023-09-12T01:57:45;19.80;99.90
33741;DHT22;20065;48.380;10.892;2023-09-12T02:00:33;19.70;99.90
33741;DHT22;20065;48.380;10.892;2023-09-12T02:03:19;19.80;99.90
33741;DHT22;20065;48.380;10.892;2023-09-12T02:06:06;19.90;99.90
33741;DHT22;20065;48.380;10.892;2023-09-12T02:08:52;19.90;99.90
33741;DHT22;20065;48.380;10.892;2023-09-12T02:11:38;20.00;99.90
33741;DHT22;20065;48.380;10.892;2023-09-12T02:14:24;20.00;99.90
33741;DHT22;20065;48.380;10.892;2023-09-12T02:17:10;20.00;99.90
33741;DHT22;20065;48.380;10.892;2023-09-12T02:19:56;20.00;99.90
33741;DHT22;20065;48.380;10.892;2023-09-12T02:22:42;19.90;99.90
33741;DHT22;20065;48.380;10.892;2023-09-12T02:25:29;19.80;99.90
33741;DHT22;20065;48.380;10.892;2023-09-12T02:28:15;19.70;99.90
33741;DHT22;20065;48.380;10.892;2023-09-12T02:31:01;19.60;99.90
33741;DHT22;20065;48.380;10.892;2023-09-12T02:33:47;19.50;99.90
33741;DHT22;20065;48.380;10.892;2023-09-12T02:36:33;19.40;99.90
33741;DHT22;20065;48.380;10.892;2023-09-12T02:39:20;19.50;99.90
33741;DHT22;20065;48.380;10.892;2023-09-12T02:42:06;19.40;99.90
33741;DHT22;20065;48.380;10.892;2023-09-12T02:44:52;19.40;99.90
33741;DHT22;20065;48.380;10.892;2023-09-12T02:47:38;19.30;99.90
33741;DHT22;20065;48.380;10.892;2023-09-12T02:50:24;19.30;99.90
33741;DHT22;20065;48.380;10.892;2023-09-12T02:53:10;19.30;99.90
33741;DHT22;20065;48.380;10.892;2023-09-12T02:55:57;19.30;99.90
33741;DHT22;20065;48.380;10.892;2023-09-12T02:58:46;19.30;99.90
33741;DHT22;20065;48.380;10.892;2023-09-12T03:01:39;19.30;99.90
33741;DHT22;20065;48.380;10.892;2023-09-12T03:04:25;19.30;99.90
33741;DHT22;20065;48.380;10.892;2023-09-12T03:07:14;19.20;99.90
33741;DHT22;20065;48.380;10.892;2023-09-12T03:10:00;19.30;99.90
33741;DHT22;20065;48.380;10.892;2023-09-12T03:12:46;19.30;99.90
33741;DHT22;20065;48.380;10.892;2023-09-12T03:15:36;19.20;99.90
33741;DHT22;20065;48.380;10.892;2023-09-12T03:18:23;19.20;99.90
33741;DHT22;20065;48.380;10.892;2023-09-12T03:21:09;19.20;99.90
33741;DHT22;20065;48.380;10.892;2023-09-12T03:23:56;19.10;99.90
33741;DHT22;20065;48.380;10.892;2023-09-12T03:26:53;19.10;99.90
33741;DHT22;20065;48.380;10.892;2023-09-12T03:29:39;19.20;99.90
33741;DHT22;20065;48.380;10.892;2023-09-12T03:32:25;19.20;99.90
33741;DHT22;20065;48.380;10.892;2023-09-12T03:35:12;19.40;99.90
33741;DHT22;20065;48.380;10.892;2023-09-12T03:37:59;19.40;99.90
33741;DHT22;20065;48.380;10.892;2023-09-12T03:40:46;19.30;99.90
33741;DHT22;20065;48.380;10.892;2023-09-12T03:43:33;19.30;99.90
33741;DHT22;20065;48.380;10.892;2023-09-12T03:46:23;19.40;99.90
33741;DHT22;20065;48.380;10.892;2023-09-12T03:49:10;19.40;99.90
33741;DHT22;20065;48.380;10.892;2023-09-12T03:51:56;19.30;99.90
33741;DHT22;20065;48.380;10.892;2023-09-12T03:54:42;19.30;99.90
33741;DHT22;20065;48.380;10.892;2023-09-12T03:57:28;19.20;99.90
33741;DHT22;20065;48.380;10.892;2023-09-12T04:00:15;19.20;99.90
33741;DHT22;20065;48.380;10.892;2023-09-12T04:03:05;19.20;99.90
33741;DHT22;20065;48.380;10.892;2023-09-12T04:05:51;19.10;99.90
33741;DHT22;20065;48.380;10.892;2023-09-12T04:08:37;19.00;99.90
33741;DHT22;20065;48.380;10.892;2023-09-12T04:11:23;19.00;99.90
33741;DHT22;20065;48.380;10.892;2023-09-12T04:14:10;19.00;99.90
33741;DHT22;20065;48.380;10.892;2023-09-12T04:16:56;18.90;99.90
33741;DHT22;20065;48.380;10.892;2023-09-12T04:19:42;18.90;99.90
33741;DHT22;20065;48.380;10.892;2023-09-12T04:22:28;18.90;99.90
33741;DHT22;20065;48.380;10.892;2023-09-12T04:25:15;19.00;99.90
33741;DHT22;20065;48.380;10.892;2023-09-12T04:28:02;19.10;99.90
33741;DHT22;20065;48.380;10.892;2023-09-12T04:30:48;19.10;99.90
33741;DHT22;20065;48.380;10.892;2023-09-12T04:33:38;19.20;99.90
33741;DHT22;20065;48.380;10.892;2023-09-12T04:36:24;19.20;99.90
33741;DHT22;20065;48.380;10.892;2023-09-12T04:39:10;19.20;99.90
33741;DHT22;20065;48.380;10.892;2023-09-12T04:41:56;19.20;99.90
33741;DHT22;20065;48.380;10.892;2023-09-12T04:44:42;19.00;99.90
33741;DHT22;20065;48.380;10.892;2023-09-12T04:47:29;19.00;99.90
33741;DHT22;20065;48.380;10.892;2023-09-12T04:50:15;19.00;99.90
33741;DHT22;20065;48.380;10.892;2023-09-12T04:53:01;19.00;99.90
33741;DHT22;20065;48.380;10.892;2023-09-12T04:55:47;18.90;99.90
33741;DHT22;20065;48.380;10.892;2023-09-12T04:58:36;18.90;99.90
33741;DHT22;20065;48.380;10.892;2023-09-12T05:01:23;18.90;99.90
33741;DHT22;20065;48.380;10.892;2023-09-12T05:04:11;19.00;99.90
33741;DHT22;20065;48.380;10.892;2023-09-12T05:06:57;18.90;99.90
33741;DHT22;20065;48.380;10.892;2023-09-12T05:09:43;18.90;99.90
33741;DHT22;20065;48.380;10.892;2023-09-12T05:12:30;19.00;99.90
33741;DHT22;20065;48.380;10.892;2023-09-12T05:15:16;19.00;99.90
33741;DHT22;20065;48.380;10.892;2023-09-12T05:18:03;19.00;99.90
33741;DHT22;20065;48.380;10.892;2023-09-12T05:20:49;19.10;99.90
33741;DHT22;20065;48.380;10.892;2023-09-12T05:23:35;19.10;99.90
33741;DHT22;20065;48.380;10.892;2023-09-12T05:26:21;19.00;99.90
33741;DHT22;20065;48.380;10.892;2023-09-12T05:29:08;18.90;99.90
33741;DHT22;20065;48.380;10.892;2023-09-12T05:31:54;18.90;99.90
33741;DHT22;20065;48.380;10.892;2023-09-12T05:34:40;18.90;99.90
33741;DHT22;20065;48.380;10.892;2023-09-12T05:37:26;18.80;99.90
33741;DHT22;20065;48.380;10.892;2023-09-12T05:40:13;18.90;99.90
33741;DHT22;20065;48.380;10.892;2023-09-12T05:42:59;18.80;99.90
33741;DHT22;20065;48.380;10.892;2023-09-12T05:45:45;19.00;99.90
33741;DHT22;20065;48.380;10.892;2023-09-12T05:48:31;19.00;99.90
33741;DHT22;20065;48.380;10.892;2023-09-12T05:51:17;19.20;99.90
33741;DHT22;20065;48.380;10.892;2023-09-12T05:54:03;19.10;99.90
33741;DHT22;20065;48.380;10.892;2023-09-12T05:56:50;19.30;99.90
33741;DHT22;20065;48.380;10.892;2023-09-12T05:59:38;19.40;99.90
33741;DHT22;20065;48.380;10.892;2023-09-12T06:02:26;19.40;99.90
33741;DHT22;20065;48.380;10.892;2023-09-12T06:05:13;19.50;99.90
33741;DHT22;20065;48.380;10.892;2023-09-12T06:07:59;19.50;99.90
33741;DHT22;20065;48.380;10.892;2023-09-12T06:10:46;19.40;99.90
33741;DHT22;20065;48.380;10.892;2023-09-12T06:13:32;19.50;99.90
33741;DHT22;20065;48.380;10.892;2023-09-12T06:16:18;19.70;99.90
33741;DHT22;20065;48.380;10.892;2023-09-12T06:19:04;19.70;99.90
33741;DHT22;20065;48.380;10.892;2023-09-12T06:21:50;19.60;99.90
33741;DHT22;20065;48.380;10.892;2023-09-12T06:24:36;19.50;99.90
33741;DHT22;20065;48.380;10.892;2023-09-12T06:27:25;19.50;99.90
33741;DHT22;20065;48.380;10.892;2023-09-12T06:30:12;19.40;99.90
33741;DHT22;20065;48.380;10.892;2023-09-12T06:32:58;19.50;99.90
33741;DHT22;20065;48.380;10.892;2023-09-12T06:35:50;19.50;99.90
33741;DHT22;20065;48.380;10.892;2023-09-12T06:38:38;19.70;99.90
33741;DHT22;20065;48.380;10.892;2023-09-12T06:41:25;19.80;99.90
33741;DHT22;20065;48.380;10.892;2023-09-12T06:44:12;20.00;99.90
33741;DHT22;20065;48.380;10.892;2023-09-12T06:47:05;20.10;99.90
33741;DHT22;20065;48.380;10.892;2023-09-12T06:49:52;20.10;99.90
33741;DHT22;20065;48.380;10.892;2023-09-12T06:52:38;20.10;99.90
33741;DHT22;20065;48.380;10.892;2023-09-12T06:55:24;20.20;99.90
33741;DHT22;20065;48.380;10.892;2023-09-12T06:58:12;20.30;99.90
33741;DHT22;20065;48.380;10.892;2023-09-12T07:01:05;20.50;99.90
33741;DHT22;20065;48.380;10.892;2023-09-12T07:03:52;20.60;99.90
33741;DHT22;20065;48.380;10.892;2023-09-12T07:06:39;20.70;99.90
33741;DHT22;20065;48.380;10.892;2023-09-12T07:09:26;20.80;99.90
33741;DHT22;20065;48.380;10.892;2023-09-12T07:12:12;20.80;99.90
33741;DHT22;20065;48.380;10.892;2023-09-12T07:14:58;20.80;99.90
33741;DHT22;20065;48.380;10.892;2023-09-12T07:17:44;20.80;99.90
33741;DHT22;20065;48.380;10.892;2023-09-12T07:20:31;20.90;99.90
33741;DHT22;20065;48.380;10.892;2023-09-12T07:23:17;20.90;99.90
33741;DHT22;20065;48.380;10.892;2023-09-12T07:26:03;20.90;99.90
33741;DHT22;20065;48.380;10.892;2023-09-12T07:28:49;21.00;99.90
33741;DHT22;20065;48.380;10.892;2023-09-12T07:31:35;21.00;99.90
33741;DHT22;20065;48.380;10.892;2023-09-12T07:34:23;21.10;99.90
33741;DHT22;20065;48.380;10.892;2023-09-12T07:37:09;21.10;99.90
33741;DHT22;20065;48.380;10.892;2023-09-12T07:39:55;21.20;99.90
33741;DHT22;20065;48.380;10.892;2023-09-12T07:42:41;21.20;99.90
33741;DHT22;20065;48.380;10.892;2023-09-12T07:45:28;21.20;99.90
33741;DHT22;20065;48.380;10.892;2023-09-12T07:48:15;21.20;99.90
33741;DHT22;20065;48.380;10.892;2023-09-12T07:51:04;21.30;99.90
33741;DHT22;20065;48.380;10.892;2023-09-12T07:53:56;21.30;99.90
33741;DHT22;20065;48.380;10.892;2023-09-12T07:56:43;21.30;99.90
33741;DHT22;20065;48.380;10.892;2023-09-12T07:59:30;21.60;99.90
33741;DHT22;20065;48.380;10.892;2023-09-12T08:02:17;21.50;99.90
33741;DHT22;20065;48.380;10.892;2023-09-12T08:05:04;21.50;99.90
33741;DHT22;20065;48.380;10.892;2023-09-12T08:07:51;21.40;99.90
33741;DHT22;20065;48.380;10.892;2023-09-12T08:10:37;21.50;99.90
33741;DHT22;20065;48.380;10.892;2023-09-12T08:13:28;21.40;99.90
33741;DHT22;20065;48.380;10.892;2023-09-12T08:16:15;21.50;99.90
33741;DHT22;20065;48.380;10.892;2023-09-12T08:19:02;21.70;99.90
33741;DHT22;20065;48.380;10.892;2023-09-12T08:21:48;21.80;99.90
33741;DHT22;20065;48.380;10.892;2023-09-12T08:24:35;21.90;99.90
33741;DHT22;20065;48.380;10.892;2023-09-12T08:27:21;22.10;99.90
33741;DHT22;20065;48.380;10.892;2023-09-12T08:30:08;22.00;99.90
33741;DHT22;20065;48.380;10.892;2023-09-12T08:32:55;22.10;99.90
33741;DHT22;20065;48.380;10.892;2023-09-12T08:35:45;22.10;99.90
33741;DHT22;20065;48.380;10.892;2023-09-12T08:38:31;22.20;99.90
33741;DHT22;20065;48.380;10.892;2023-09-12T08:41:17;22.20;99.90
33741;DHT22;20065;48.380;10.892;2023-09-12T08:44:04;22.40;99.90
33741;DHT22;20065;48.380;10.892;2023-09-12T08:46:51;22.50;99.90
33741;DHT22;20065;48.380;10.892;2023-09-12T08:49:38;22.60;99.90
33741;DHT22;20065;48.380;10.892;2023-09-12T08:52:24;22.60;99.90
33741;DHT22;20065;48.380;10.892;2023-09-12T08:55:12;22.70;99.90
33741;DHT22;20065;48.380;10.892;2023-09-12T08:58:00;22.70;99.90
33741;DHT22;20065;48.380;10.892;2023-09-12T09:00:48;22.80;99.90
33741;DHT22;20065;48.380;10.892;2023-09-12T09:03:35;23.00;99.90
33741;DHT22;20065;48.380;10.892;2023-09-12T09:06:22;23.00;99.90
33741;DHT22;20065;48.380;10.892;2023-09-12T09:09:09;23.00;99.90
33741;DHT22;20065;48.380;10.892;2023-09-12T09:11:55;22.90;99.90
33741;DHT22;20065;48.380;10.892;2023-09-12T09:14:41;23.00;99.90
33741;DHT22;20065;48.380;10.892;2023-09-12T09:17:28;23.00;99.90
33741;DHT22;20065;48.380;10.892;2023-09-12T09:20:29;23.20;99.90
33741;DHT22;20065;48.380;10.892;2023-09-12T09:23:15;23.50;99.90
33741;DHT22;20065;48.380;10.892;2023-09-12T09:26:01;23.50;99.90
33741;DHT22;20065;48.380;10.892;2023-09-12T09:29:05;23.60;99.90
33741;DHT22;20065;48.380;10.892;2023-09-12T09:31:51;23.80;99.90
33741;DHT22;20065;48.380;10.892;2023-09-12T09:34:39;23.90;99.90
33741;DHT22;20065;48.380;10.892;2023-09-12T09:37:25;23.80;99.90
33741;DHT22;20065;48.380;10.892;2023-09-12T09:40:12;23.90;99.90
33741;DHT22;20065;48.380;10.892;2023-09-12T09:43:02;24.00;99.90
33741;DHT22;20065;48.380;10.892;2023-09-12T09:45:49;24.30;99.90
33741;DHT22;20065;48.380;10.892;2023-09-12T09:48:35;24.50;99.90
33741;DHT22;20065;48.380;10.892;2023-09-12T09:51:21;24.60;99.90
33741;DHT22;20065;48.380;10.892;2023-09-12T09:54:08;24.80;99.90
33741;DHT22;20065;48.380;10.892;2023-09-12T09:56:56;25.10;99.90
33741;DHT22;20065;48.380;10.892;2023-09-12T09:59:49;25.10;99.90
33741;DHT22;20065;48.380;10.892;2023-09-12T10:02:36;25.40;99.90
33741;DHT22;20065;48.380;10.892;2023-09-12T10:05:29;25.50;99.90
33741;DHT22;20065;48.380;10.892;2023-09-12T10:08:18;25.30;99.90
33741;DHT22;20065;48.380;10.892;2023-09-12T10:11:04;25.10;99.90
33741;DHT22;20065;48.380;10.892;2023-09-12T10:14:04;25.20;99.90
33741;DHT22;20065;48.380;10.892;2023-09-12T10:16:50;25.00;99.90
33741;DHT22;20065;48.380;10.892;2023-09-12T10:19:43;25.00;99.90
33741;DHT22;20065;48.380;10.892;2023-09-12T10:25:43;25.20;99.90
33741;DHT22;20065;48.380;10.892;2023-09-12T10:28:30;25.30;99.90
33741;DHT22;20065;48.380;10.892;2023-09-12T10:31:17;25.60;99.90
33741;DHT22;20065;48.380;10.892;2023-09-12T10:34:05;26.20;99.90
33741;DHT22;20065;48.380;10.892;2023-09-12T10:36:58;26.40;99.90
33741;DHT22;20065;48.380;10.892;2023-09-12T10:39:45;26.60;99.90
33741;DHT22;20065;48.380;10.892;2023-09-12T10:42:32;26.30;99.90
33741;DHT22;20065;48.380;10.892;2023-09-12T10:45:20;26.10;99.90
33741;DHT22;20065;48.380;10.892;2023-09-12T10:48:09;26.00;99.90
33741;DHT22;20065;48.380;10.892;2023-09-12T10:50:58;25.80;99.90
33741;DHT22;20065;48.380;10.892;2023-09-12T10:53:47;25.80;99.90
33741;DHT22;20065;48.380;10.892;2023-09-12T10:56:35;25.70;99.90
33741;DHT22;20065;48.380;10.892;2023-09-12T10:59:21;25.80;99.90
33741;DHT22;20065;48.380;10.892;2023-09-12T11:02:33;25.90;99.90
33741;DHT22;20065;48.380;10.892;2023-09-12T11:08:17;26.90;99.90
33741;DHT22;20065;48.380;10.892;2023-09-12T11:11:23;27.40;99.90
33741;DHT22;20065;48.380;10.892;2023-09-12T11:14:09;27.60;99.90
33741;DHT22;20065;48.380;10.892;2023-09-12T11:17:22;27.10;99.90
33741;DHT22;20065;48.380;10.892;2023-09-12T11:20:10;26.90;99.90
33741;DHT22;20065;48.380;10.892;2023-09-12T11:23:09;26.90;99.90
33741;DHT22;20065;48.380;10.892;2023-09-12T11:26:04;26.80;99.90
33741;DHT22;20065;48.380;10.892;2023-09-12T11:28:51;26.90;99.90
33741;DHT22;20065;48.380;10.892;2023-09-12T11:31:38;27.00;99.90
33741;DHT22;20065;48.380;10.892;2023-09-12T11:34:29;26.80;99.90
33741;DHT22;20065;48.380;10.892;2023-09-12T11:37:26;26.60;99.90
33741;DHT22;20065;48.380;10.892;2023-09-12T11:43:00;26.60;99.90
33741;DHT22;20065;48.380;10.892;2023-09-12T11:45:46;26.70;99.90
33741;DHT22;20065;48.380;10.892;2023-09-12T11:48:33;26.70;99.90
33741;DHT22;20065;48.380;10.892;2023-09-12T11:51:20;26.90;99.90
33741;DHT22;20065;48.380;10.892;2023-09-12T11:54:06;27.10;99.90
33741;DHT22;20065;48.380;10.892;2023-09-12T11:56:53;27.20;99.90
33741;DHT22;20065;48.380;10.892;2023-09-12T11:59:46;27.30;99.90
33741;DHT22;20065;48.380;10.892;2023-09-12T12:02:35;27.50;99.90
33741;DHT22;20065;48.380;10.892;2023-09-12T12:05:22;27.60;99.90
33741;DHT22;20065;48.380;10.892;2023-09-12T12:08:09;27.80;99.90
33741;DHT22;20065;48.380;10.892;2023-09-12T12:10:56;27.80;99.90
33741;DHT22;20065;48.380;10.892;2023-09-12T12:13:44;27.80;99.90
33741;DHT22;20065;48.380;10.892;2023-09-12T12:16:30;27.90;99.90
33741;DHT22;20065;48.380;10.892;2023-09-12T12:19:16;28.00;99.90
33741;DHT22;20065;48.380;10.892;2023-09-12T12:22:06;28.10;99.90
33741;DHT22;20065;48.380;10.892;2023-09-12T12:24:53;28.10;99.90
33741;DHT22;20065;48.380;10.892;2023-09-12T12:27:41;28.10;99.90
33741;DHT22;20065;48.380;10.892;2023-09-12T12:30:30;28.10;99.90
33741;DHT22;20065;48.380;10.892;2023-09-12T12:33:17;28.00;99.90
33741;DHT22;20065;48.380;10.892;2023-09-12T12:36:08;27.90;99.90
33741;DHT22;20065;48.380;10.892;2023-09-12T12:38:54;27.90;99.90
33741;DHT22;20065;48.380;10.892;2023-09-12T12:41:47;27.80;99.90
33741;DHT22;20065;48.380;10.892;2023-09-12T12:44:33;27.90;99.90
33741;DHT22;20065;48.380;10.892;2023-09-12T12:47:26;27.90;99.90
33741;DHT22;20065;48.380;10.892;2023-09-12T12:50:15;27.90;99.90
33741;DHT22;20065;48.380;10.892;2023-09-12T12:53:03;27.90;99.90
33741;DHT22;20065;48.380;10.892;2023-09-12T12:55:49;27.90;99.90
33741;DHT22;20065;48.380;10.892;2023-09-12T12:58:36;27.90;99.90
33741;DHT22;20065;48.380;10.892;2023-09-12T13:01:23;27.90;99.90
33741;DHT22;20065;48.380;10.892;2023-09-12T13:04:09;27.90;99.90
33741;DHT22;20065;48.380;10.892;2023-09-12T13:07:24;27.90;99.90
33741;DHT22;20065;48.380;10.892;2023-09-12T13:10:11;28.10;99.90
33741;DHT22;20065;48.380;10.892;2023-09-12T13:12:57;28.00;99.90
33741;DHT22;20065;48.380;10.892;2023-09-12T13:15:45;28.00;99.90
33741;DHT22;20065;48.380;10.892;2023-09-12T13:18:33;28.00;99.90
33741;DHT22;20065;48.380;10.892;2023-09-12T13:21:19;28.00;99.90
33741;DHT22;20065;48.380;10.892;2023-09-12T13:24:05;28.00;99.90
33741;DHT22;20065;48.380;10.892;2023-09-12T13:26:52;28.00;99.90
33741;DHT22;20065;48.380;10.892;2023-09-12T13:29:39;28.00;99.90
33741;DHT22;20065;48.380;10.892;2023-09-12T13:32:25;28.10;99.90
33741;DHT22;20065;48.380;10.892;2023-09-12T13:35:11;28.10;99.90
33741;DHT22;20065;48.380;10.892;2023-09-12T13:37:58;28.10;99.90
33741;DHT22;20065;48.380;10.892;2023-09-12T13:40:45;28.00;99.90
33741;DHT22;20065;48.380;10.892;2023-09-12T13:43:31;27.90;99.90
33741;DHT22;20065;48.380;10.892;2023-09-12T13:46:17;27.80;99.90
33741;DHT22;20065;48.380;10.892;2023-09-12T13:49:03;27.90;99.90
33741;DHT22;20065;48.380;10.892;2023-09-12T13:51:50;28.00;99.90
33741;DHT22;20065;48.380;10.892;2023-09-12T13:54:36;28.00;99.90
33741;DHT22;20065;48.380;10.892;2023-09-12T13:57:22;27.90;99.90
33741;DHT22;20065;48.380;10.892;2023-09-12T14:00:09;28.00;99.90
33741;DHT22;20065;48.380;10.892;2023-09-12T14:02:55;28.00;99.90
33741;DHT22;20065;48.380;10.892;2023-09-12T14:05:41;28.00;99.90
33741;DHT22;20065;48.380;10.892;2023-09-12T14:08:27;27.90;99.90
33741;DHT22;20065;48.380;10.892;2023-09-12T14:11:13;27.90;99.90
33741;DHT22;20065;48.380;10.892;2023-09-12T14:13:59;27.80;99.90
33741;DHT22;20065;48.380;10.892;2023-09-12T14:16:45;27.80;99.90
33741;DHT22;20065;48.380;10.892;2023-09-12T14:19:32;27.80;99.90
33741;DHT22;20065;48.380;10.892;2023-09-12T14:22:19;27.70;99.90
33741;DHT22;20065;48.380;10.892;2023-09-12T14:25:07;27.60;99.90
33741;DHT22;20065;48.380;10.892;2023-09-12T14:27:54;27.60;99.90
33741;DHT22;20065;48.380;10.892;2023-09-12T14:30:40;27.50;99.90
33741;DHT22;20065;48.380;10.892;2023-09-12T14:33:30;27.50;99.90
33741;DHT22;20065;48.380;10.892;2023-09-12T14:36:16;27.40;99.90
33741;DHT22;20065;48.380;10.892;2023-09-12T14:39:03;27.40;99.90
33741;DHT22;20065;48.380;10.892;2023-09-12T14:41:49;27.40;99.90
33741;DHT22;20065;48.380;10.892;2023-09-12T14:44:38;27.30;99.90
33741;DHT22;20065;48.380;10.892;2023-09-12T14:47:24;27.30;99.90
33741;DHT22;20065;48.380;10.892;2023-09-12T14:50:12;27.30;99.90
33741;DHT22;20065;48.380;10.892;2023-09-12T14:52:59;27.30;99.90
33741;DHT22;20065;48.380;10.892;2023-09-12T14:55:45;27.30;99.90
33741;DHT22;20065;48.380;10.892;2023-09-12T14:58:32;27.50;98.60
33741;DHT22;20065;48.380;10.892;2023-09-12T15:01:19;27.70;98.60
33741;DHT22;20065;48.380;10.892;2023-09-12T15:04:05;27.80;99.70
33741;DHT22;20065;48.380;10.892;2023-09-12T15:06:54;27.80;99.90
33741;DHT22;20065;48.380;10.892;2023-09-12T15:09:40;27.60;99.90
33741;DHT22;20065;48.380;10.892;2023-09-12T15:12:27;27.50;99.90
33741;DHT22;20065;48.380;10.892;2023-09-12T15:15:13;27.30;99.90
33741;DHT22;20065;48.380;10.892;2023-09-12T15:17:59;27.30;99.90
33741;DHT22;20065;48.380;10.892;2023-09-12T15:20:47;27.20;99.90
33741;DHT22;20065;48.380;10.892;2023-09-12T15:23:34;27.10;99.90
33741;DHT22;20065;48.380;10.892;2023-09-12T15:26:20;27.10;99.90
33741;DHT22;20065;48.380;10.892;2023-09-12T15:29:06;27.00;99.90
33741;DHT22;20065;48.380;10.892;2023-09-12T15:31:54;27.00;99.90
33741;DHT22;20065;48.380;10.892;2023-09-12T15:34:40;26.90;99.90
33741;DHT22;20065;48.380;10.892;2023-09-12T15:37:30;26.80;99.90
33741;DHT22;20065;48.380;10.892;2023-09-12T15:40:16;26.70;99.90
33741;DHT22;20065;48.380;10.892;2023-09-12T15:43:02;26.60;99.90
33741;DHT22;20065;48.380;10.892;2023-09-12T15:45:49;26.60;99.90
33741;DHT22;20065;48.380;10.892;2023-09-12T15:48:35;26.60;99.90
33741;DHT22;20065;48.380;10.892;2023-09-12T15:51:22;26.50;99.90
33741;DHT22;20065;48.380;10.892;2023-09-12T15:54:09;26.50;99.90
33741;DHT22;20065;48.380;10.892;2023-09-12T15:56:56;26.50;99.90
33741;DHT22;20065;48.380;10.892;2023-09-12T15:59:42;26.40;99.90
33741;DHT22;20065;48.380;10.892;2023-09-12T16:02:28;26.30;99.90
33741;DHT22;20065;48.380;10.892;2023-09-12T16:05:14;26.30;99.90
33741;DHT22;20065;48.380;10.892;2023-09-12T16:08:00;26.20;99.90
33741;DHT22;20065;48.380;10.892;2023-09-12T16:10:48;26.20;99.90
33741;DHT22;20065;48.380;10.892;2023-09-12T16:13:34;26.20;99.90
33741;DHT22;20065;48.380;10.892;2023-09-12T16:16:20;26.10;99.90
33741;DHT22;20065;48.380;10.892;2023-09-12T16:19:07;26.10;99.90
33741;DHT22;20065;48.380;10.892;2023-09-12T16:21:54;26.10;99.90
33741;DHT22;20065;48.380;10.892;2023-09-12T16:24:41;26.00;99.90
33741;DHT22;20065;48.380;10.892;2023-09-12T16:27:27;26.00;99.90
33741;DHT22;20065;48.380;10.892;2023-09-12T16:30:13;26.00;99.90
33741;DHT22;20065;48.380;10.892;2023-09-12T16:32:59;25.90;99.90
33741;DHT22;20065;48.380;10.892;2023-09-12T16:35:46;25.90;99.90
33741;DHT22;20065;48.380;10.892;2023-09-12T16:38:32;25.80;99.90
33741;DHT22;20065;48.380;10.892;2023-09-12T16:41:18;25.80;99.90
33741;DHT22;20065;48.380;10.892;2023-09-12T16:44:05;25.80;99.90
33741;DHT22;20065;48.380;10.892;2023-09-12T16:46:51;25.80;99.90
33741;DHT22;20065;48.380;10.892;2023-09-12T16:49:38;25.70;99.90
33741;DHT22;20065;48.380;10.892;2023-09-12T16:52:27;25.70;99.90
33741;DHT22;20065;48.380;10.892;2023-09-12T16:55:15;25.70;99.90
33741;DHT22;20065;48.380;10.892;2023-09-12T16:58:03;25.50;99.90
33741;DHT22;20065;48.380;10.892;2023-09-12T17:00:49;25.70;99.90
33741;DHT22;20065;48.380;10.892;2023-09-12T17:03:35;25.60;99.90
33741;DHT22;20065;48.380;10.892;2023-09-12T17:06:21;25.60;99.90
33741;DHT22;20065;48.380;10.892;2023-09-12T17:09:07;25.60;99.90
33741;DHT22;20065;48.380;10.892;2023-09-12T17:11:54;25.50;99.90
33741;DHT22;20065;48.380;10.892;2023-09-12T17:14:40;25.50;99.90
33741;DHT22;20065;48.380;10.892;2023-09-12T17:17:26;25.50;99.90
33741;DHT22;20065;48.380;10.892;2023-09-12T17:20:13;25.40;99.90
33741;DHT22;20065;48.380;10.892;2023-09-12T17:23:00;25.40;99.90
33741;DHT22;20065;48.380;10.892;2023-09-12T17:25:46;25.40;99.90
33741;DHT22;20065;48.380;10.892;2023-09-12T17:28:32;25.30;99.90
33741;DHT22;20065;48.380;10.892;2023-09-12T17:31:18;25.20;99.90
33741;DHT22;20065;48.380;10.892;2023-09-12T17:34:04;25.00;99.90
33741;DHT22;20065;48.380;10.892;2023-09-12T17:36:53;24.80;99.90